Time;durP1;ratioP1;P1;durP2;ratioP2;P2;SDS_P1;SDS_P2;PMS_P1;PMS_P2;Temp;Humidity;BMP_temperature;BMP_pressure;BME280_temperature;BME280_humidity;BME280_pressure;Samples;Min_cycle;Max_cycle;Signal;HPM_P1;HPM_P2
2023/10/05 00:00:31;;;;;;;;;;;13.30;99.90;;;;;;5075185;28;19909;-73
2023/10/05 00:02:57;;;;;;;;;;;13.30;99.90;;;;;;5075982;28;19913;-73
2023/10/05 00:05:22;;;;;;;;;;;13.20;99.90;;;;;;5076022;28;19913;-73
2023/10/05 00:07:48;;;;;;;;;;;13.20;99.90;;;;;;5076067;28;19915;-73
2023/10/05 00:10:14;;;;;;;;;;;13.20;99.90;;;;;;5075148;28;19968;-73
2023/10/05 00:12:41;;;;;;;;;;;13.20;99.90;;;;;;5075159;28;19955;-73
2023/10/05 00:17:36;;;;;;;;;;;13.20;99.90;;;;;;5075833;28;19993;-73
2023/10/05 00:20:09;;;;;;;;;;;13.20;99.90;;;;;;5074609;28;19909;-74
2023/10/05 00:22:34;;;;;;;;;;;13.10;99.90;;;;;;5075701;28;19920;-73
2023/10/05 00:25:00;;;;;;;;;;;13.10;99.90;;;;;;5076074;28;19912;-73
2023/10/05 00:27:25;;;;;;;;;;;13.10;99.90;;;;;;5075931;28;19943;-73
2023/10/05 00:29:56;;;;;;;;;;;13.10;99.90;;;;;;5075699;28;20399;-73
2023/10/05 00:32:47;;;;;;;;;;;13.00;99.90;;;;;;5075917;28;20319;-73
2023/10/05 00:35:50;;;;;;;;;;;13.00;99.90;;;;;;5075480;28;20364;-73
2023/10/05 00:38:04;;;;;;;;;;;13.00;99.90;;;;;;5072412;28;20003;-73
2023/10/05 00:40:37;;;;;;;;;;;13.00;99.90;;;;;;5075742;28;19952;-74
2023/10/05 00:43:24;;;;;;;;;;;13.00;99.90;;;;;;5075583;28;19919;-73
2023/10/05 00:45:50;;;;;;;;;;;12.90;99.90;;;;;;5071272;28;19909;-73
2023/10/05 00:48:28;;;;;;;;;;;12.80;99.90;;;;;;5075383;28;19909;-73
2023/10/05 00:51:00;;;;;;;;;;;12.90;99.90;;;;;;5075759;28;20370;-73
2023/10/05 00:53:29;;;;;;;;;;;12.80;99.90;;;;;;5075083;28;19945;-73
2023/10/05 00:56:04;;;;;;;;;;;12.80;99.90;;;;;;5065972;28;19908;-73
2023/10/05 00:58:38;;;;;;;;;;;12.80;99.90;;;;;;5076766;28;19967;-73
2023/10/05 01:01:08;;;;;;;;;;;12.70;99.90;;;;;;5075763;28;19908;-74
2023/10/05 01:03:35;;;;;;;;;;;12.70;99.90;;;;;;5074014;28;20005;-73
2023/10/05 01:06:12;;;;;;;;;;;12.70;99.90;;;;;;5074237;28;19962;-73
2023/10/05 01:08:49;;;;;;;;;;;12.60;99.90;;;;;;5072241;28;19909;-73
2023/10/05 01:11:25;;;;;;;;;;;12.60;99.90;;;;;;5074334;28;19912;-73
2023/10/05 01:13:56;;;;;;;;;;;12.60;99.90;;;;;;5075740;28;19913;-73
2023/10/05 01:16:22;;;;;;;;;;;12.50;99.90;;;;;;5074287;28;19912;-73
2023/10/05 01:18:47;;;;;;;;;;;12.50;99.90;;;;;;5075386;28;20478;-73
2023/10/05 01:21:13;;;;;;;;;;;12.50;99.90;;;;;;5075268;28;19908;-73
2023/10/05 01:23:40;;;;;;;;;;;12.50;99.90;;;;;;5075557;28;20003;-73
2023/10/05 01:26:12;;;;;;;;;;;12.40;99.90;;;;;;5077556;28;19954;-74
2023/10/05 01:28:41;;;;;;;;;;;12.40;99.90;;;;;;5076546;28;19913;-74
2023/10/05 01:31:09;;;;;;;;;;;12.30;99.90;;;;;;5078627;28;19921;-73
2023/10/05 01:33:35;;;;;;;;;;;12.40;99.90;;;;;;5077875;28;19909;-74
2023/10/05 01:36:03;;;;;;;;;;;12.40;99.90;;;;;;5078675;28;19915;-73
2023/10/05 01:38:30;;;;;;;;;;;12.30;99.90;;;;;;5077415;28;19970;-73
2023/10/05 01:40:58;;;;;;;;;;;12.30;99.90;;;;;;5078928;28;19909;-73
2023/10/05 01:43:24;;;;;;;;;;;12.30;99.90;;;;;;5078661;28;19916;-73
2023/10/05 01:45:50;;;;;;;;;;;12.30;99.90;;;;;;5078487;28;19909;-73
2023/10/05 01:48:23;;;;;;;;;;;12.30;99.90;;;;;;5078692;28;19915;-73
2023/10/05 01:50:50;;;;;;;;;;;12.30;99.90;;;;;;5077326;28;19913;-73
2023/10/05 01:53:16;;;;;;;;;;;12.30;99.90;;;;;;5076935;28;19915;-73
2023/10/05 01:55:45;;;;;;;;;;;12.20;99.90;;;;;;5078285;28;19908;-73
2023/10/05 01:58:23;;;;;;;;;;;12.20;99.90;;;;;;5078522;28;19908;-74
2023/10/05 02:00:49;;;;;;;;;;;12.20;99.90;;;;;;5076998;28;20343;-73
2023/10/05 02:03:17;;;;;;;;;;;12.20;99.90;;;;;;5078176;28;19917;-73
2023/10/05 02:05:44;;;;;;;;;;;12.20;99.90;;;;;;5078010;28;19919;-73
2023/10/05 02:08:09;;;;;;;;;;;12.20;99.90;;;;;;5077669;28;20284;-73
2023/10/05 02:10:40;;;;;;;;;;;12.20;99.90;;;;;;5079115;28;19909;-73
2023/10/05 02:13:12;;;;;;;;;;;12.10;99.90;;;;;;5077022;28;20319;-73
2023/10/05 02:15:39;;;;;;;;;;;12.10;99.90;;;;;;5078065;28;19912;-73
2023/10/05 02:18:18;;;;;;;;;;;12.10;99.90;;;;;;5076621;28;19916;-73
2023/10/05 02:20:45;;;;;;;;;;;12.00;99.90;;;;;;5078242;28;19912;-73
2023/10/05 02:23:28;;;;;;;;;;;11.90;99.90;;;;;;5074059;28;20481;-73
2023/10/05 02:25:57;;;;;;;;;;;11.90;99.90;;;;;;5078144;28;19923;-73
2023/10/05 02:28:25;;;;;;;;;;;11.80;99.90;;;;;;5076687;28;19944;-73
2023/10/05 02:30:53;;;;;;;;;;;11.80;99.90;;;;;;5077662;28;19920;-73
2023/10/05 02:33:23;;;;;;;;;;;11.70;99.90;;;;;;5077735;28;19915;-73
2023/10/05 02:35:50;;;;;;;;;;;11.70;99.90;;;;;;5076120;28;19919;-73
2023/10/05 02:38:20;;;;;;;;;;;11.60;99.90;;;;;;5076151;28;19920;-73
2023/10/05 02:40:54;;;;;;;;;;;11.60;99.90;;;;;;5077484;28;19909;-73
2023/10/05 02:43:26;;;;;;;;;;;11.60;99.90;;;;;;5077457;28;19916;-73
2023/10/05 02:45:56;;;;;;;;;;;11.50;99.90;;;;;;5076231;28;19976;-73
2023/10/05 02:48:23;;;;;;;;;;;11.40;99.90;;;;;;5077286;28;19908;-73
2023/10/05 02:50:51;;;;;;;;;;;11.40;99.90;;;;;;5077481;28;19909;-73
2023/10/05 02:53:18;;;;;;;;;;;11.40;99.90;;;;;;5076910;28;20011;-73
2023/10/05 02:55:51;;;;;;;;;;;11.30;99.90;;;;;;5076000;28;19943;-73
2023/10/05 02:58:16;;;;;;;;;;;11.30;99.90;;;;;;5077197;28;19909;-73
2023/10/05 03:00:44;;;;;;;;;;;11.30;99.90;;;;;;5075808;28;20061;-73
2023/10/05 03:03:14;;;;;;;;;;;11.30;99.90;;;;;;5076510;28;20299;-73
2023/10/05 03:05:41;;;;;;;;;;;11.30;99.90;;;;;;5074983;28;19913;-73
2023/10/05 03:08:09;;;;;;;;;;;11.20;99.90;;;;;;5076148;28;19919;-73
2023/10/05 03:10:34;;;;;;;;;;;11.20;99.90;;;;;;5077086;28;19909;-73
2023/10/05 03:13:02;;;;;;;;;;;11.20;99.90;;;;;;5076596;28;19908;-73
2023/10/05 03:15:28;;;;;;;;;;;11.10;99.90;;;;;;5075692;28;19913;-73
2023/10/05 03:17:57;;;;;;;;;;;11.10;99.90;;;;;;5076715;28;19908;-73
2023/10/05 03:20:24;;;;;;;;;;;11.00;99.90;;;;;;5075585;28;20320;-74
2023/10/05 03:22:54;;;;;;;;;;;11.00;99.90;;;;;;5076093;28;19923;-73
2023/10/05 03:25:21;;;;;;;;;;;11.00;99.90;;;;;;5075668;28;19909;-73
2023/10/05 03:27:48;;;;;;;;;;;11.00;99.90;;;;;;5076532;28;19912;-73
2023/10/05 03:30:14;;;;;;;;;;;10.90;99.90;;;;;;5076662;28;20038;-74
2023/10/05 03:32:40;;;;;;;;;;;10.90;99.90;;;;;;5075051;28;20331;-73
2023/10/05 03:35:08;;;;;;;;;;;10.90;99.90;;;;;;5076561;28;19909;-73
2023/10/05 03:37:34;;;;;;;;;;;10.90;99.90;;;;;;5075003;28;19913;-73
2023/10/05 03:42:28;;;;;;;;;;;10.90;99.90;;;;;;5076427;28;19935;-74
2023/10/05 03:45:03;;;;;;;;;;;10.90;99.90;;;;;;5076254;28;19909;-74
2023/10/05 03:47:28;;;;;;;;;;;10.80;99.90;;;;;;5074335;28;19909;-73
2023/10/05 03:49:57;;;;;;;;;;;10.80;99.90;;;;;;5076004;28;20402;-73
2023/10/05 03:52:23;;;;;;;;;;;10.80;99.90;;;;;;5076250;28;19917;-73
2023/10/05 03:54:49;;;;;;;;;;;10.80;99.90;;;;;;5076271;28;19915;-73
2023/10/05 03:57:16;;;;;;;;;;;10.80;99.90;;;;;;5076441;28;20010;-73
2023/10/05 03:59:42;;;;;;;;;;;10.70;99.90;;;;;;5075232;28;19915;-74
2023/10/05 04:02:09;;;;;;;;;;;10.70;99.90;;;;;;5075063;28;20326;-74
2023/10/05 04:04:35;;;;;;;;;;;10.70;99.90;;;;;;5075436;28;19962;-73
2023/10/05 04:07:01;;;;;;;;;;;10.70;99.90;;;;;;5074798;28;19909;-74
2023/10/05 04:09:29;;;;;;;;;;;10.70;99.90;;;;;;5076047;28;19948;-73
2023/10/05 04:11:56;;;;;;;;;;;10.70;99.90;;;;;;5075913;28;19923;-73
2023/10/05 04:14:22;;;;;;;;;;;10.70;99.90;;;;;;5075940;28;19909;-73
2023/10/05 04:16:48;;;;;;;;;;;10.60;99.90;;;;;;5076101;28;20026;-73
2023/10/05 04:19:14;;;;;;;;;;;10.60;99.90;;;;;;5075684;28;19912;-73
2023/10/05 04:21:40;;;;;;;;;;;10.60;99.90;;;;;;5075912;28;19909;-73
2023/10/05 04:24:06;;;;;;;;;;;10.60;99.90;;;;;;5075501;28;19934;-73
2023/10/05 04:26:37;;;;;;;;;;;10.60;99.90;;;;;;5075856;28;19909;-73
2023/10/05 04:29:09;;;;;;;;;;;10.60;99.90;;;;;;5074313;28;19962;-73
2023/10/05 04:31:37;;;;;;;;;;;10.60;99.90;;;;;;5075512;28;19921;-73
2023/10/05 04:34:11;;;;;;;;;;;10.60;99.90;;;;;;5075590;28;20693;-73
2023/10/05 04:36:36;;;;;;;;;;;10.60;99.90;;;;;;5075343;28;20017;-73
2023/10/05 04:39:04;;;;;;;;;;;10.50;99.90;;;;;;5072906;28;19908;-73
2023/10/05 04:41:31;;;;;;;;;;;10.50;99.90;;;;;;5074314;28;19909;-73
2023/10/05 04:43:57;;;;;;;;;;;10.50;99.90;;;;;;5074261;28;19913;-73
2023/10/05 04:46:23;;;;;;;;;;;10.40;99.90;;;;;;5075518;28;19916;-73
2023/10/05 04:51:35;;;;;;;;;;;10.40;99.90;;;;;;5075952;28;19919;-73
2023/10/05 04:54:01;;;;;;;;;;;10.40;99.90;;;;;;5075295;28;19974;-73
2023/10/05 04:59:37;;;;;;;;;;;10.40;99.90;;;;;;5064713;28;19908;-73
2023/10/05 05:02:21;;;;;;;;;;;10.40;99.90;;;;;;5079571;28;19912;-73
2023/10/05 05:07:16;;;;;;;;;;;10.40;99.90;;;;;;5079087;28;19908;-73
2023/10/05 05:09:42;;;;;;;;;;;10.40;99.90;;;;;;5079498;28;20314;-73
2023/10/05 05:12:09;;;;;;;;;;;10.30;99.90;;;;;;5079300;28;19992;-75
2023/10/05 05:14:37;;;;;;;;;;;10.30;99.90;;;;;;5078835;28;19913;-72
2023/10/05 05:17:05;;;;;;;;;;;10.30;99.90;;;;;;5079237;28;19913;-74
2023/10/05 05:19:31;;;;;;;;;;;10.30;99.90;;;;;;5079133;28;20025;-74
2023/10/05 05:21:59;;;;;;;;;;;10.30;99.90;;;;;;5079229;28;19908;-74
2023/10/05 05:24:28;;;;;;;;;;;10.20;99.90;;;;;;5078767;28;19951;-74
2023/10/05 05:26:56;;;;;;;;;;;10.30;99.90;;;;;;5078981;28;19908;-75
2023/10/05 05:29:24;;;;;;;;;;;10.30;99.90;;;;;;5077641;28;20398;-74
2023/10/05 05:31:50;;;;;;;;;;;10.30;99.90;;;;;;5077347;28;19920;-74
2023/10/05 05:34:15;;;;;;;;;;;10.30;99.90;;;;;;5078855;28;19919;-74
2023/10/05 05:36:43;;;;;;;;;;;10.30;99.90;;;;;;5078518;28;21423;-74
2023/10/05 05:39:14;;;;;;;;;;;10.30;99.90;;;;;;5078765;28;19915;-74
2023/10/05 05:41:40;;;;;;;;;;;10.30;99.90;;;;;;5078715;28;19915;-74
2023/10/05 05:44:07;;;;;;;;;;;10.30;99.90;;;;;;5078628;28;19920;-74
2023/10/05 05:46:32;;;;;;;;;;;10.30;99.90;;;;;;5078386;28;19908;-74
2023/10/05 05:48:58;;;;;;;;;;;10.30;99.90;;;;;;5078559;28;19916;-74
2023/10/05 05:51:24;;;;;;;;;;;10.20;99.90;;;;;;5078765;28;19920;-74
2023/10/05 05:53:52;;;;;;;;;;;10.20;99.90;;;;;;5078592;28;19909;-74
2023/10/05 05:56:18;;;;;;;;;;;10.10;99.90;;;;;;5078463;28;20340;-74
2023/10/05 05:58:44;;;;;;;;;;;10.10;99.90;;;;;;5078623;28;20061;-74
2023/10/05 06:01:12;;;;;;;;;;;10.10;99.90;;;;;;5078290;28;19915;-75
2023/10/05 06:03:42;;;;;;;;;;;10.10;99.90;;;;;;5078607;28;19920;-74
2023/10/05 06:06:07;;;;;;;;;;;10.20;99.90;;;;;;5078313;28;19908;-74
2023/10/05 06:08:33;;;;;;;;;;;10.20;99.90;;;;;;5077419;28;20317;-74
2023/10/05 06:10:58;;;;;;;;;;;10.20;99.90;;;;;;5077457;28;20437;-74
2023/10/05 06:13:24;;;;;;;;;;;10.20;99.90;;;;;;5076948;28;19915;-74
2023/10/05 06:15:49;;;;;;;;;;;10.30;99.90;;;;;;5076808;28;20269;-74
2023/10/05 06:18:15;;;;;;;;;;;10.40;99.90;;;;;;5078166;28;19970;-74
2023/10/05 06:20:40;;;;;;;;;;;10.40;99.90;;;;;;5078008;28;19912;-74
2023/10/05 06:23:06;;;;;;;;;;;10.40;99.90;;;;;;5077872;28;19939;-74
2023/10/05 06:25:31;;;;;;;;;;;10.50;99.90;;;;;;5078179;28;19965;-74
2023/10/05 06:27:59;;;;;;;;;;;10.50;99.90;;;;;;5077422;28;19920;-74
2023/10/05 06:30:24;;;;;;;;;;;10.50;99.90;;;;;;5077690;28;19925;-74
2023/10/05 06:32:50;;;;;;;;;;;10.50;99.90;;;;;;5077696;28;20010;-74
2023/10/05 06:35:17;;;;;;;;;;;10.50;99.90;;;;;;5077779;28;19948;-74
2023/10/05 06:37:43;;;;;;;;;;;10.50;99.90;;;;;;5076183;28;19916;-74
2023/10/05 06:40:21;;;;;;;;;;;10.60;99.90;;;;;;5076339;28;20257;-73
2023/10/05 06:42:49;;;;;;;;;;;10.60;99.90;;;;;;5076455;28;19912;-74
2023/10/05 06:45:15;;;;;;;;;;;10.70;99.90;;;;;;5077858;28;19908;-74
2023/10/05 06:47:42;;;;;;;;;;;10.80;99.90;;;;;;5076325;28;20302;-74
2023/10/05 06:50:08;;;;;;;;;;;10.80;99.90;;;;;;5077672;28;19919;-74
2023/10/05 06:52:36;;;;;;;;;;;10.90;99.90;;;;;;5077284;28;20022;-74
2023/10/05 06:55:12;;;;;;;;;;;11.00;99.90;;;;;;5077801;28;19912;-73
2023/10/05 06:57:43;;;;;;;;;;;11.10;99.90;;;;;;5075737;28;19962;-74
2023/10/05 07:00:15;;;;;;;;;;;11.20;99.90;;;;;;5077789;28;19999;-75
2023/10/05 07:02:41;;;;;;;;;;;11.30;99.90;;;;;;5076653;28;19917;-74
2023/10/05 07:05:08;;;;;;;;;;;11.30;99.90;;;;;;5075806;28;19909;-74
2023/10/05 07:07:36;;;;;;;;;;;11.50;99.90;;;;;;5077107;28;20736;-74
2023/10/05 07:10:03;;;;;;;;;;;11.50;99.90;;;;;;5075800;28;20391;-74
2023/10/05 07:12:30;;;;;;;;;;;11.70;99.90;;;;;;5077094;28;19971;-74
2023/10/05 07:14:56;;;;;;;;;;;11.80;99.90;;;;;;5075554;28;19909;-75
2023/10/05 07:17:21;;;;;;;;;;;11.90;99.90;;;;;;5076881;28;20003;-75
2023/10/05 07:19:49;;;;;;;;;;;12.00;99.90;;;;;;5076949;28;19996;-75
2023/10/05 07:22:16;;;;;;;;;;;12.10;99.90;;;;;;5076137;28;19963;-75
2023/10/05 07:24:42;;;;;;;;;;;12.20;99.90;;;;;;5076190;28;19966;-75
2023/10/05 07:27:07;;;;;;;;;;;12.40;99.90;;;;;;5077250;28;19908;-75
2023/10/05 07:29:33;;;;;;;;;;;12.50;99.90;;;;;;5076685;28;19913;-75
2023/10/05 07:31:58;;;;;;;;;;;12.70;99.90;;;;;;5076668;28;19931;-75
2023/10/05 07:34:24;;;;;;;;;;;12.90;99.90;;;;;;5075599;28;19912;-74
2023/10/05 07:36:50;;;;;;;;;;;13.10;99.90;;;;;;5076632;28;19909;-74
2023/10/05 07:39:23;;;;;;;;;;;13.30;99.90;;;;;;5076308;28;20049;-73
2023/10/05 07:41:51;;;;;;;;;;;13.50;99.90;;;;;;5076192;28;19935;-75
2023/10/05 07:44:17;;;;;;;;;;;13.50;99.90;;;;;;5075972;28;19916;-75
2023/10/05 07:46:43;;;;;;;;;;;13.70;99.90;;;;;;5076548;28;19923;-74
2023/10/05 07:49:09;;;;;;;;;;;13.80;99.90;;;;;;5076719;28;19931;-74
2023/10/05 07:51:35;;;;;;;;;;;13.90;99.90;;;;;;5076170;28;19916;-74
2023/10/05 07:54:00;;;;;;;;;;;14.10;99.90;;;;;;5095056;28;20052;-75
2023/10/05 07:56:26;;;;;;;;;;;14.30;99.90;;;;;;5076151;28;19961;-75
2023/10/05 07:58:51;;;;;;;;;;;14.40;99.90;;;;;;5101839;28;19959;-75
2023/10/05 08:01:18;;;;;;;;;;;14.50;99.90;;;;;;5075720;28;19909;-75
2023/10/05 08:03:44;;;;;;;;;;;14.50;99.90;;;;;;5074709;28;19913;-74
2023/10/05 08:06:14;;;;;;;;;;;14.70;99.90;;;;;;5075969;28;19913;-75
2023/10/05 08:08:41;;;;;;;;;;;14.80;99.90;;;;;;5075751;28;19966;-75
2023/10/05 08:11:06;;;;;;;;;;;14.90;99.90;;;;;;5073520;28;19913;-75
2023/10/05 08:13:32;;;;;;;;;;;15.00;99.90;;;;;;5070773;28;20288;-76
2023/10/05 08:15:57;;;;;;;;;;;15.00;99.90;;;;;;5072781;28;19919;-74
2023/10/05 08:18:23;;;;;;;;;;;15.20;99.90;;;;;;5074470;28;19966;-75
2023/10/05 08:20:49;;;;;;;;;;;15.30;99.90;;;;;;5077170;28;20010;-75
2023/10/05 08:23:15;;;;;;;;;;;15.40;99.90;;;;;;5074228;28;19924;-75
2023/10/05 08:25:41;;;;;;;;;;;15.50;99.90;;;;;;5073557;28;19913;-75
2023/10/05 08:28:09;;;;;;;;;;;15.50;99.90;;;;;;5075040;28;19913;-75
2023/10/05 08:30:45;;;;;;;;;;;15.50;99.90;;;;;;5075984;28;20007;-75
2023/10/05 08:33:15;;;;;;;;;;;15.50;99.90;;;;;;5074741;28;19912;-74
2023/10/05 08:35:41;;;;;;;;;;;15.70;99.90;;;;;;5074786;28;20061;-75
2023/10/05 08:38:13;;;;;;;;;;;15.90;99.90;;;;;;5072261;28;19962;-75
2023/10/05 08:40:40;;;;;;;;;;;15.90;99.90;;;;;;5074658;28;19977;-74
2023/10/05 08:43:16;;;;;;;;;;;16.10;99.90;;;;;;5069114;28;19923;-74
2023/10/05 08:45:46;;;;;;;;;;;16.40;99.90;;;;;;5069803;28;19919;-74
2023/10/05 08:48:19;;;;;;;;;;;16.60;99.90;;;;;;5071987;28;19919;-74
2023/10/05 08:50:53;;;;;;;;;;;16.80;99.90;;;;;;5074605;28;19931;-73
2023/10/05 08:53:22;;;;;;;;;;;16.80;99.90;;;;;;5068233;28;20365;-74
2023/10/05 08:55:54;;;;;;;;;;;16.90;99.90;;;;;;5074525;28;19908;-74
2023/10/05 08:58:20;;;;;;;;;;;17.00;99.90;;;;;;5074612;28;19909;-74
2023/10/05 09:00:46;;;;;;;;;;;17.10;99.90;;;;;;5074524;28;19909;-74
2023/10/05 09:03:33;;;;;;;;;;;17.10;99.90;;;;;;5073829;28;19924;-74
2023/10/05 09:06:13;;;;;;;;;;;17.20;99.90;;;;;;5073571;28;19978;-74
2023/10/05 09:09:06;;;;;;;;;;;17.40;99.90;;;;;;5074182;28;19916;-74
2023/10/05 09:11:32;;;;;;;;;;;17.50;99.90;;;;;;5072617;28;19943;-74
2023/10/05 09:17:08;;;;;;;;;;;17.80;99.90;;;;;;5038903;28;19909;-74
2023/10/05 09:19:34;;;;;;;;;;;18.00;99.90;;;;;;5073214;28;19951;-74
2023/10/05 09:24:29;;;;;;;;;;;18.30;99.90;;;;;;5073236;28;19931;-75
2023/10/05 09:26:56;;;;;;;;;;;18.40;99.90;;;;;;5071802;28;19913;-76
2023/10/05 09:29:23;;;;;;;;;;;18.50;99.90;;;;;;5074330;28;19909;-76
2023/10/05 09:31:53;;;;;;;;;;;18.70;99.90;;;;;;5074164;28;19926;-76
2023/10/05 09:34:34;;;;;;;;;;;18.80;99.90;;;;;;5071614;28;19908;-75
2023/10/05 09:37:05;;;;;;;;;;;18.90;99.90;;;;;;5073837;28;19908;-74
2023/10/05 09:39:44;;;;;;;;;;;18.90;99.90;;;;;;5074022;28;19909;-75
2023/10/05 09:42:22;;;;;;;;;;;19.00;99.90;;;;;;5070997;28;19915;-75
2023/10/05 09:44:52;;;;;;;;;;;19.10;99.90;;;;;;5068398;28;19916;-74
2023/10/05 09:47:19;;;;;;;;;;;19.00;99.90;;;;;;5076115;28;20791;-73
2023/10/05 09:49:45;;;;;;;;;;;19.20;99.90;;;;;;5076176;28;19908;-74
2023/10/05 09:52:12;;;;;;;;;;;19.30;99.90;;;;;;5077090;28;19913;-75
2023/10/05 09:54:38;;;;;;;;;;;19.40;99.90;;;;;;5077279;28;19913;-75
2023/10/05 09:57:10;;;;;;;;;;;19.50;99.90;;;;;;5076393;28;20527;-77
2023/10/05 09:59:41;;;;;;;;;;;19.60;99.90;;;;;;5074187;28;19909;-77
2023/10/05 10:02:12;;;;;;;;;;;19.60;99.90;;;;;;5073638;28;19988;-75
2023/10/05 10:04:39;;;;;;;;;;;19.80;99.90;;;;;;5075925;28;19922;-76
2023/10/05 10:07:15;;;;;;;;;;;20.00;99.90;;;;;;5077642;28;19908;-77
2023/10/05 10:09:46;;;;;;;;;;;20.10;99.90;;;;;;5076407;28;19909;-77
2023/10/05 10:12:51;;;;;;;;;;;20.10;99.90;;;;;;5077074;28;19999;-76
2023/10/05 10:15:28;;;;;;;;;;;20.10;99.90;;;;;;5009325;28;19909;-76
2023/10/05 10:18:06;;;;;;;;;;;20.10;99.90;;;;;;5069439;28;20410;-77
2023/10/05 10:20:35;;;;;;;;;;;20.10;99.90;;;;;;5077116;28;19908;-76
2023/10/05 10:23:07;;;;;;;;;;;20.20;99.90;;;;;;5075971;28;19916;-77
2023/10/05 10:25:38;;;;;;;;;;;20.30;99.90;;;;;;5076059;28;19915;-77
2023/10/05 10:28:14;;;;;;;;;;;20.40;99.90;;;;;;5075948;28;19971;-77
2023/10/05 10:30:47;;;;;;;;;;;20.40;99.90;;;;;;5073238;28;19916;-77
2023/10/05 10:33:27;;;;;;;;;;;20.50;99.90;;;;;;5075625;28;19916;-77
2023/10/05 10:35:55;;;;;;;;;;;20.50;99.90;;;;;;5076952;28;19913;-76
2023/10/05 10:38:23;;;;;;;;;;;20.70;99.90;;;;;;5076901;28;19912;-76
2023/10/05 10:41:07;;;;;;;;;;;20.70;99.90;;;;;;5074969;28;19908;-76
2023/10/05 10:43:33;;;;;;;;;;;20.80;99.90;;;;;;5075566;28;19913;-76
2023/10/05 10:46:00;;;;;;;;;;;21.00;99.90;;;;;;5076220;28;20292;-76
2023/10/05 10:48:29;;;;;;;;;;;21.10;99.90;;;;;;5077415;28;19912;-75
2023/10/05 10:50:59;;;;;;;;;;;21.20;99.90;;;;;;5076454;28;19912;-76
2023/10/05 10:53:25;;;;;;;;;;;21.30;99.90;;;;;;5075521;28;19971;-76
2023/10/05 10:55:58;;;;;;;;;;;21.30;99.90;;;;;;5073993;28;19915;-76
2023/10/05 10:58:30;;;;;;;;;;;21.40;99.90;;;;;;5076428;28;20326;-76
2023/10/05 11:00:57;;;;;;;;;;;21.50;99.90;;;;;;5076124;28;19912;-77
2023/10/05 11:03:30;;;;;;;;;;;21.60;99.90;;;;;;5075179;28;19952;-77
2023/10/05 11:05:58;;;;;;;;;;;21.70;99.90;;;;;;5075373;28;19912;-76
2023/10/05 11:08:24;;;;;;;;;;;21.80;99.90;;;;;;5074687;28;20398;-77
2023/10/05 11:10:59;;;;;;;;;;;22.00;99.90;;;;;;5075853;28;19909;-76
2023/10/05 11:13:25;;;;;;;;;;;22.10;99.90;;;;;;5075559;28;20380;-76
2023/10/05 11:15:57;;;;;;;;;;;22.20;99.90;;;;;;5074452;28;19912;-76
2023/10/05 11:18:26;;;;;;;;;;;22.10;99.90;;;;;;5076106;28;19909;-76
2023/10/05 11:20:52;;;;;;;;;;;22.10;99.90;;;;;;5074521;28;19912;-76
2023/10/05 11:23:25;;;;;;;;;;;22.20;99.90;;;;;;5073864;28;19999;-76
2023/10/05 11:28:38;;;;;;;;;;;22.40;99.90;;;;;;5070806;28;19923;-77
2023/10/05 11:31:03;;;;;;;;;;;22.40;99.90;;;;;;5074113;28;19924;-77
2023/10/05 11:33:34;;;;;;;;;;;22.50;99.90;;;;;;5074474;28;19919;-77
2023/10/05 11:36:17;;;;;;;;;;;22.70;99.90;;;;;;5075496;28;20003;-76
2023/10/05 11:38:43;;;;;;;;;;;22.90;99.90;;;;;;5072075;28;19991;-77
2023/10/05 11:41:09;;;;;;;;;;;23.00;99.90;;;;;;5075465;28;19962;-78
2023/10/05 11:43:34;;;;;;;;;;;23.00;99.90;;;;;;5074633;28;19958;-78
2023/10/05 11:46:12;;;;;;;;;;;23.00;99.90;;;;;;5073455;28;19909;-77
2023/10/05 11:48:42;;;;;;;;;;;23.20;99.90;;;;;;5070527;28;19935;-76
2023/10/05 11:51:13;;;;;;;;;;;23.30;99.90;;;;;;5073931;28;19954;-77
2023/10/05 11:53:39;;;;;;;;;;;23.30;99.90;;;;;;5070197;28;19909;-76
2023/10/05 11:56:05;;;;;;;;;;;23.30;99.90;;;;;;5073253;28;19913;-76
2023/10/05 11:58:40;;;;;;;;;;;23.50;99.90;;;;;;5072652;28;19908;-77
2023/10/05 12:01:06;;;;;;;;;;;23.70;99.90;;;;;;5073613;28;19908;-77
2023/10/05 12:03:32;;;;;;;;;;;23.80;99.90;;;;;;5074735;28;19921;-76
2023/10/05 12:06:00;;;;;;;;;;;23.80;99.90;;;;;;5073598;28;19912;-78
2023/10/05 12:08:28;;;;;;;;;;;23.90;99.90;;;;;;5074337;28;19916;-78
2023/10/05 12:10:54;;;;;;;;;;;24.00;99.90;;;;;;5072714;28;19912;-77
2023/10/05 12:13:22;;;;;;;;;;;24.00;99.90;;;;;;5072758;28;20015;-78
2023/10/05 12:15:51;;;;;;;;;;;24.20;99.90;;;;;;5069347;28;19935;-76
2023/10/05 12:18:17;;;;;;;;;;;24.30;99.90;;;;;;5075240;28;20406;-77
2023/10/05 12:20:42;;;;;;;;;;;24.30;99.90;;;;;;5075306;28;19912;-77
2023/10/05 12:23:10;;;;;;;;;;;24.40;99.90;;;;;;5074238;28;20301;-77
2023/10/05 12:25:36;;;;;;;;;;;24.50;99.90;;;;;;5074970;28;19924;-78
2023/10/05 12:28:02;;;;;;;;;;;24.60;99.90;;;;;;5074442;28;19919;-78
2023/10/05 12:30:31;;;;;;;;;;;24.70;99.90;;;;;;5074772;28;19920;-78
2023/10/05 12:32:56;;;;;;;;;;;24.70;99.90;;;;;;5072862;28;20288;-77
2023/10/05 12:35:23;;;;;;;;;;;24.80;99.90;;;;;;5074462;28;19908;-77
2023/10/05 12:37:49;;;;;;;;;;;25.00;99.90;;;;;;5074937;28;20012;-77
2023/10/05 12:40:17;;;;;;;;;;;25.00;99.90;;;;;;5074208;28;19912;-77
2023/10/05 12:42:49;;;;;;;;;;;25.20;99.90;;;;;;5073804;28;20783;-77
2023/10/05 12:45:16;;;;;;;;;;;25.40;99.90;;;;;;5090071;28;20376;-79
2023/10/05 12:47:42;;;;;;;;;;;25.60;99.90;;;;;;5075189;28;19916;-79
2023/10/05 12:50:08;;;;;;;;;;;25.80;99.90;;;;;;5073640;28;19908;-77
2023/10/05 12:52:34;;;;;;;;;;;25.80;98.50;;;;;;5073356;28;19989;-77
2023/10/05 12:55:00;;;;;;;;;;;25.90;98.00;;;;;;5075602;28;19908;-77
2023/10/05 12:57:26;;;;;;;;;;;25.80;98.40;;;;;;5076611;28;19948;-76
2023/10/05 12:59:52;;;;;;;;;;;25.90;99.90;;;;;;5071778;28;19913;-78
2023/10/05 13:02:17;;;;;;;;;;;26.00;97.80;;;;;;5069440;28;19916;-78
2023/10/05 13:04:43;;;;;;;;;;;26.10;97.70;;;;;;5072921;28;19916;-80
2023/10/05 13:07:08;;;;;;;;;;;26.10;97.50;;;;;;5074491;28;19916;-78
2023/10/05 13:09:34;;;;;;;;;;;26.30;97.20;;;;;;5074851;28;20311;-78
2023/10/05 13:12:08;;;;;;;;;;;26.30;97.10;;;;;;5074832;28;19916;-77
2023/10/05 13:14:33;;;;;;;;;;;26.20;97.50;;;;;;5073677;28;19913;-76
2023/10/05 13:17:00;;;;;;;;;;;26.30;97.30;;;;;;5074835;28;19935;-78
2023/10/05 13:19:25;;;;;;;;;;;26.30;96.20;;;;;;5075498;28;20269;-78
2023/10/05 13:21:51;;;;;;;;;;;26.30;96.00;;;;;;5077272;28;19978;-78
2023/10/05 13:24:16;;;;;;;;;;;26.30;95.70;;;;;;5075858;28;19913;-78
2023/10/05 13:26:45;;;;;;;;;;;26.30;95.60;;;;;;5078558;28;19909;-79
2023/10/05 13:29:11;;;;;;;;;;;26.30;95.50;;;;;;5077211;28;19909;-79
2023/10/05 13:31:41;;;;;;;;;;;26.30;95.40;;;;;;5078052;28;20404;-78
2023/10/05 13:34:11;;;;;;;;;;;26.30;96.50;;;;;;5076122;28;20388;-78
2023/10/05 13:36:36;;;;;;;;;;;26.40;95.50;;;;;;5077941;28;20353;-78
2023/10/05 13:39:10;;;;;;;;;;;26.50;96.80;;;;;;5077851;28;19939;-79
2023/10/05 13:41:38;;;;;;;;;;;26.40;95.10;;;;;;5077092;28;20285;-78
2023/10/05 13:44:04;;;;;;;;;;;26.30;94.90;;;;;;5076721;28;20019;-78
2023/10/05 13:46:35;;;;;;;;;;;26.30;95.40;;;;;;5078132;28;19913;-78
2023/10/05 13:49:01;;;;;;;;;;;26.40;94.30;;;;;;5078119;28;20245;-78
2023/10/05 13:51:29;;;;;;;;;;;26.40;94.00;;;;;;5078103;28;19974;-78
2023/10/05 13:53:55;;;;;;;;;;;26.40;95.60;;;;;;5077185;28;20348;-77
2023/10/05 13:56:27;;;;;;;;;;;26.40;94.00;;;;;;5078145;28;19912;-77
2023/10/05 13:59:01;;;;;;;;;;;26.50;93.90;;;;;;5078160;28;19909;-77
2023/10/05 14:01:33;;;;;;;;;;;26.50;93.80;;;;;;5077684;28;19920;-79
2023/10/05 14:03:59;;;;;;;;;;;26.60;93.90;;;;;;5076982;28;20021;-78
2023/10/05 14:06:28;;;;;;;;;;;26.60;93.90;;;;;;5076352;28;19908;-78
2023/10/05 14:08:57;;;;;;;;;;;26.80;92.50;;;;;;5077167;28;20024;-80
2023/10/05 14:11:22;;;;;;;;;;;26.70;92.90;;;;;;5077681;28;19912;-79
2023/10/05 14:13:49;;;;;;;;;;;26.70;93.20;;;;;;5076460;28;20390;-79
2023/10/05 14:16:14;;;;;;;;;;;26.80;93.40;;;;;;5077387;28;19909;-77
2023/10/05 14:18:40;;;;;;;;;;;26.90;94.20;;;;;;5076261;28;19916;-77
2023/10/05 14:21:05;;;;;;;;;;;26.80;94.40;;;;;;5076503;28;19908;-78
2023/10/05 14:23:31;;;;;;;;;;;26.60;94.00;;;;;;5074186;28;19916;-78
2023/10/05 14:25:57;;;;;;;;;;;26.70;92.00;;;;;;5075729;28;19917;-78
2023/10/05 14:28:26;;;;;;;;;;;26.70;91.90;;;;;;5075909;28;19931;-78
2023/10/05 14:30:52;;;;;;;;;;;26.80;92.20;;;;;;5076555;28;20706;-78
2023/10/05 14:33:17;;;;;;;;;;;26.90;91.80;;;;;;5075641;28;19959;-78
2023/10/05 14:35:44;;;;;;;;;;;26.90;92.80;;;;;;5077857;28;20376;-78
2023/10/05 14:38:10;;;;;;;;;;;26.90;91.70;;;;;;5077769;28;19912;-77
2023/10/05 14:40:39;;;;;;;;;;;26.90;92.10;;;;;;5078339;28;19969;-77
2023/10/05 14:43:05;;;;;;;;;;;26.90;90.30;;;;;;5078001;28;19923;-79
2023/10/05 14:45:33;;;;;;;;;;;26.90;91.00;;;;;;5077981;28;19909;-78